createdAt,value
2018-04-16T00:01:32.759Z,10.10
2018-04-16T00:04:02.061Z,10.10
2018-04-16T00:06:29.633Z,10.00
2018-04-16T00:08:57.209Z,10.00
2018-04-16T00:11:29.879Z,10.00
2018-04-16T00:14:01.162Z,10.10
2018-04-16T00:16:29.552Z,10.10
2018-04-16T00:18:58.254Z,10.10
2018-04-16T00:21:27.744Z,10.00
2018-04-16T00:24:01.184Z,10.00
2018-04-16T00:26:37.581Z,10.00
2018-04-16T00:29:10.675Z,10.00
2018-04-16T00:31:48.312Z,10.00
2018-04-16T00:34:28.751Z,9.90
2018-04-16T00:37:03.666Z,9.90
2018-04-16T00:39:38.678Z,9.90
2018-04-16T00:42:14.434Z,9.60
2018-04-16T00:44:47.550Z,9.60
2018-04-16T00:47:23.874Z,9.40
2018-04-16T00:49:58.095Z,9.20
2018-04-16T00:55:55.841Z,9.20
2018-04-16T00:58:29.276Z,9.10
2018-04-16T01:01:02.825Z,9.00
2018-04-16T01:03:36.456Z,9.00
2018-04-16T01:06:11.388Z,9.00
2018-04-16T01:09:00.307Z,9.00
2018-04-16T01:11:33.762Z,9.00
2018-04-16T01:17:02.629Z,8.90
2018-04-16T01:19:37.585Z,8.90
2018-04-16T01:22:12.999Z,9.00
2018-04-16T01:24:46.206Z,9.10
2018-04-16T01:27:19.456Z,9.10
2018-04-16T01:29:54.684Z,9.10
2018-04-16T01:32:28.131Z,9.10
2018-04-16T01:35:05.567Z,9.00
2018-04-16T01:37:38.641Z,8.90
2018-04-16T01:40:11.790Z,8.70
2018-04-16T01:42:45.025Z,8.70
2018-04-16T01:45:33.098Z,8.80
2018-04-16T01:48:06.123Z,8.80
2018-04-16T01:50:46.379Z,8.90
2018-04-16T01:53:21.159Z,9.00
2018-04-16T01:55:54.302Z,9.10
2018-04-16T01:58:27.388Z,9.00
2018-04-16T02:01:00.554Z,9.00
2018-04-16T02:03:34.983Z,9.10
2018-04-16T02:06:08.208Z,9.10
2018-04-16T02:08:41.342Z,9.20
2018-04-16T02:11:15.168Z,9.20
2018-04-16T02:13:48.249Z,9.20
2018-04-16T02:16:21.471Z,9.10
2018-04-16T02:18:58.411Z,9.10
2018-04-16T02:21:34.361Z,9.00
2018-04-16T02:24:08.514Z,8.90
2018-04-16T02:26:44.556Z,8.80
2018-04-16T02:29:19.800Z,8.70
2018-04-16T02:31:56.400Z,8.60
2018-04-16T02:34:32.708Z,8.40
2018-04-16T02:37:07.362Z,8.40
2018-04-16T02:39:40.754Z,8.40
2018-04-16T02:42:26.812Z,8.40
2018-04-16T02:44:59.974Z,8.40
2018-04-16T02:47:33.122Z,8.40
2018-04-16T02:50:09.041Z,8.40
2018-04-16T02:52:43.667Z,8.40
2018-04-16T02:55:16.716Z,8.40
2018-04-16T02:57:53.152Z,8.40
2018-04-16T03:00:29.996Z,8.40
2018-04-16T03:03:04.800Z,8.30
2018-04-16T03:05:39.657Z,8.30
2018-04-16T03:08:16.964Z,8.30
2018-04-16T03:10:52.732Z,8.30
2018-04-16T03:13:26.030Z,8.30
2018-04-16T03:16:00.440Z,8.20
2018-04-16T03:18:36.720Z,8.30
2018-04-16T03:21:11.445Z,8.30
2018-04-16T03:23:46.878Z,8.20
2018-04-16T03:26:28.869Z,8.20
2018-04-16T03:29:04.504Z,8.20
2018-04-16T03:31:40.317Z,8.30
2018-04-16T03:34:17.593Z,8.30
2018-04-16T03:36:52.044Z,8.20
2018-04-16T03:39:28.709Z,8.10
2018-04-16T03:42:05.170Z,8.10
2018-04-16T03:44:41.483Z,8.00
2018-04-16T03:47:18.607Z,8.00
2018-04-16T03:49:53.695Z,8.00
2018-04-16T03:52:28.147Z,7.90
2018-04-16T03:54:55.686Z,7.90
2018-04-16T03:57:24.056Z,7.90
2018-04-16T03:59:52.895Z,7.90
2018-04-16T04:02:26.085Z,7.90
2018-04-16T04:04:53.841Z,8.00
2018-04-16T04:07:22.434Z,8.00
2018-04-16T04:09:52.822Z,8.10
2018-04-16T04:12:21.195Z,8.10
2018-04-16T04:14:51.699Z,8.10
2018-04-16T04:17:21.235Z,8.10
2018-04-16T04:19:49.529Z,8.00
2018-04-16T04:22:17.398Z,7.90
2018-04-16T04:24:56.728Z,7.80
2018-04-16T04:27:36.019Z,7.90
2018-04-16T04:30:22.168Z,7.80
2018-04-16T04:32:51.817Z,7.70
2018-04-16T04:35:20.044Z,7.60
2018-04-16T04:37:47.667Z,7.50
2018-04-16T04:40:18.972Z,7.40
2018-04-16T04:42:49.033Z,7.40
2018-04-16T04:45:17.563Z,7.40
2018-04-16T04:47:45.116Z,7.40
2018-04-16T04:50:12.853Z,7.30
2018-04-16T04:52:46.288Z,7.30
2018-04-16T04:55:18.143Z,7.30
2018-04-16T04:57:45.798Z,7.30
2018-04-16T05:00:13.350Z,7.20
2018-04-16T05:02:41.532Z,7.20
2018-04-16T05:05:11.132Z,7.10
2018-04-16T05:07:43.211Z,7.10
2018-04-16T05:10:17.894Z,7.00
2018-04-16T05:13:17.206Z,7.00
2018-04-16T05:15:46.365Z,6.90
2018-04-16T05:18:14.256Z,6.80
2018-04-16T05:20:47.066Z,6.80
2018-04-16T05:23:17.917Z,6.80
2018-04-16T05:25:49.667Z,6.80
2018-04-16T05:31:39.509Z,7.00
2018-04-16T05:34:11.420Z,7.10
2018-04-16T05:36:39.493Z,7.20
2018-04-16T05:39:07.461Z,7.30
2018-04-16T05:41:35.279Z,7.30
2018-04-16T05:44:03.597Z,7.30
2018-04-16T05:46:31.138Z,7.40
2018-04-16T05:48:59.449Z,7.50
2018-04-16T05:51:27.238Z,7.50
2018-04-16T05:53:55.618Z,7.60
2018-04-16T05:56:27.970Z,7.60
2018-04-16T05:58:57.230Z,7.80
2018-04-16T06:01:24.739Z,8.00
2018-04-16T06:03:52.281Z,8.10
2018-04-16T06:06:20.162Z,8.30
2018-04-16T06:08:51.853Z,8.40
2018-04-16T06:11:20.371Z,8.60
2018-04-16T06:13:50.953Z,8.60
2018-04-16T06:16:18.790Z,8.80
2018-04-16T06:18:47.173Z,8.90
2018-04-16T06:21:17.206Z,9.10
2018-04-16T06:23:44.751Z,9.30
2018-04-16T06:26:12.301Z,9.40
2018-04-16T06:31:35.578Z,9.90
2018-04-16T06:34:03.139Z,10.00
2018-04-16T06:36:30.685Z,10.20
2018-04-16T06:39:00.582Z,10.70
2018-04-16T06:41:32.080Z,10.90
2018-04-16T06:44:02.277Z,10.90
2018-04-16T06:46:30.252Z,11.20
2018-04-16T06:48:59.176Z,11.30
2018-04-16T06:51:35.833Z,11.40
2018-04-16T06:54:05.846Z,11.20
2018-04-16T06:56:34.863Z,11.30
2018-04-16T06:59:02.745Z,11.30
2018-04-16T07:01:32.033Z,11.50
2018-04-16T07:04:02.685Z,11.50
2018-04-16T07:06:34.427Z,11.60
2018-04-16T07:09:02.986Z,11.80
2018-04-16T07:11:30.805Z,11.80
2018-04-16T07:14:00.581Z,12.10
2018-04-16T07:16:28.311Z,12.10
2018-04-16T07:18:57.074Z,12.00
2018-04-16T07:21:25.435Z,12.00
2018-04-16T07:23:53.581Z,12.10
2018-04-16T07:26:21.910Z,12.70
2018-04-16T07:28:50.521Z,12.70
2018-04-16T07:31:18.825Z,13.30
2018-04-16T07:33:46.377Z,13.30
2018-04-16T07:36:18.243Z,13.10
2018-04-16T07:38:51.286Z,12.60
2018-04-16T07:41:23.290Z,12.30
2018-04-16T07:43:51.578Z,12.70
2018-04-16T07:46:19.864Z,13.30
2018-04-16T07:48:47.748Z,13.90
2018-04-16T07:51:17.672Z,14.90
2018-04-16T07:53:50.312Z,14.90
2018-04-16T07:56:19.211Z,15.30
2018-04-16T07:58:47.617Z,15.70
2018-04-16T08:01:15.845Z,16.00
2018-04-16T08:03:46.741Z,16.40
2018-04-16T08:06:15.354Z,16.70
2018-04-16T08:08:44.388Z,16.30
2018-04-16T08:11:13.262Z,14.10
2018-04-16T08:13:41.336Z,14.10
2018-04-16T08:16:09.494Z,13.40
2018-04-16T08:18:37.055Z,13.10
2018-04-16T08:21:04.613Z,13.30
2018-04-16T08:23:32.159Z,13.30
2018-04-16T08:26:07.461Z,12.90
2018-04-16T08:28:37.900Z,12.80
2018-04-16T08:31:06.335Z,12.60
2018-04-16T08:33:35.001Z,12.40
2018-04-16T08:36:03.523Z,12.40
2018-04-16T08:38:34.748Z,12.40
2018-04-16T08:41:03.216Z,13.00
2018-04-16T08:43:30.761Z,13.00
2018-04-16T08:46:12.381Z,13.40
2018-04-16T08:48:41.389Z,13.70
2018-04-16T08:51:09.325Z,14.20
2018-04-16T08:53:39.090Z,14.30
2018-04-16T08:56:06.659Z,14.00
2018-04-16T08:58:34.218Z,13.60
2018-04-16T09:01:01.817Z,13.20
2018-04-16T09:03:32.070Z,12.90
2018-04-16T09:06:05.402Z,12.80
2018-04-16T09:08:41.118Z,12.60
2018-04-16T09:11:14.086Z,12.70
2018-04-16T09:13:42.835Z,12.90
2018-04-16T09:16:11.650Z,13.10
2018-04-16T09:18:39.941Z,13.50
2018-04-16T09:21:08.385Z,13.90
2018-04-16T09:23:35.942Z,14.70
2018-04-16T09:26:05.927Z,15.50
2018-04-16T09:28:34.474Z,15.50
2018-04-16T09:31:06.109Z,15.00
2018-04-16T09:33:39.462Z,14.30
2018-04-16T09:36:07.981Z,14.00
2018-04-16T09:38:35.521Z,13.80
2018-04-16T09:41:03.706Z,13.80
2018-04-16T09:43:31.278Z,13.90
2018-04-16T09:45:59.231Z,13.90
2018-04-16T09:48:26.781Z,14.10
2018-04-16T09:50:55.630Z,13.90
2018-04-16T09:53:30.807Z,14.00
2018-04-16T09:56:04.433Z,14.20
2018-04-16T09:58:32.346Z,14.30
2018-04-16T10:01:00.433Z,14.20
2018-04-16T10:03:28.276Z,14.20
2018-04-16T10:05:56.425Z,14.00
2018-04-16T10:08:24.456Z,13.90
2018-04-16T10:10:52.494Z,13.80
2018-04-16T10:13:21.009Z,14.00
2018-04-16T10:15:49.250Z,14.00
2018-04-16T10:18:18.213Z,14.20
2018-04-16T10:20:45.768Z,14.10
2018-04-16T10:23:13.317Z,13.90
2018-04-16T10:25:42.469Z,13.80
2018-04-16T10:28:11.476Z,13.70
2018-04-16T10:30:39.038Z,13.60
2018-04-16T10:33:07.275Z,13.60
2018-04-16T10:35:37.378Z,13.50
2018-04-16T10:38:09.676Z,13.70
2018-04-16T10:40:37.253Z,13.90
2018-04-16T10:43:04.796Z,14.00
2018-04-16T10:45:33.458Z,14.40
2018-04-16T10:48:14.581Z,14.70
2018-04-16T10:50:42.533Z,14.90
2018-04-16T10:53:10.480Z,15.20
2018-04-16T10:55:38.096Z,15.30
2018-04-16T10:58:05.614Z,15.30
2018-04-16T11:00:37.882Z,15.30
2018-04-16T11:03:19.563Z,15.40
2018-04-16T11:05:47.160Z,15.30
2018-04-16T11:08:14.914Z,15.20
2018-04-16T11:10:46.248Z,14.80
2018-04-16T11:15:49.889Z,14.60
2018-04-16T11:18:17.881Z,14.40
2018-04-16T11:20:45.435Z,14.30
2018-04-16T11:23:17.461Z,14.30
2018-04-16T11:25:46.498Z,14.50
2018-04-16T11:28:16.697Z,14.30
2018-04-16T11:30:45.173Z,14.00
2018-04-16T11:33:12.924Z,14.00
2018-04-16T11:35:41.030Z,14.00
2018-04-16T11:38:08.859Z,14.00
2018-04-16T11:40:36.408Z,14.10
2018-04-16T11:43:05.145Z,14.20
2018-04-16T11:45:32.710Z,14.20
2018-04-16T11:48:00.495Z,14.30
2018-04-16T11:50:50.287Z,14.50
2018-04-16T11:53:17.881Z,14.40
2018-04-16T11:55:46.558Z,14.50
2018-04-16T11:58:14.568Z,14.50
2018-04-16T12:00:43.045Z,14.60
2018-04-16T12:03:11.437Z,14.60
2018-04-16T12:05:40.952Z,14.60
2018-04-16T12:08:12.371Z,14.60
2018-04-16T12:10:39.938Z,14.60
2018-04-16T12:13:08.188Z,14.70
2018-04-16T12:15:38.216Z,14.70
2018-04-16T12:18:08.766Z,14.60
2018-04-16T12:20:37.477Z,14.60
2018-04-16T12:23:05.039Z,14.80
2018-04-16T12:25:33.008Z,15.70
2018-04-16T12:28:00.633Z,15.90
2018-04-16T12:30:35.500Z,15.70
2018-04-16T12:33:05.141Z,15.40
2018-04-16T12:35:33.455Z,15.20
2018-04-16T12:38:01.011Z,14.90
2018-04-16T12:40:28.825Z,14.60
2018-04-16T12:42:57.145Z,14.20
2018-04-16T12:45:24.708Z,14.20
2018-04-16T12:47:54.602Z,14.20
2018-04-16T12:50:22.796Z,14.20
2018-04-16T12:52:54.678Z,14.30
2018-04-16T12:55:26.217Z,14.30
2018-04-16T12:57:54.374Z,14.20
2018-04-16T13:00:22.706Z,14.20
2018-04-16T13:02:53.276Z,14.20
2018-04-16T13:05:42.387Z,14.30
2018-04-16T13:08:10.675Z,14.50
2018-04-16T13:10:38.214Z,14.80
2018-04-16T13:13:06.983Z,14.70
2018-04-16T13:15:34.841Z,14.70
2018-04-16T13:18:03.428Z,14.80
2018-04-16T13:20:30.989Z,14.80
2018-04-16T13:23:00.733Z,14.80
2018-04-16T13:25:28.281Z,14.80
2018-04-16T13:27:56.685Z,14.80
2018-04-16T13:30:25.546Z,14.80
2018-04-16T13:32:54.022Z,15.00
2018-04-16T13:35:23.638Z,15.40
2018-04-16T13:37:53.356Z,15.50
2018-04-16T13:40:20.928Z,15.80
2018-04-16T13:42:50.358Z,16.20
2018-04-16T13:45:19.433Z,15.90
2018-04-16T13:47:48.015Z,15.50
2018-04-16T13:50:15.615Z,15.40
2018-04-16T13:52:44.988Z,15.70
2018-04-16T13:55:15.725Z,15.70
2018-04-16T13:57:47.135Z,15.60
2018-04-16T14:00:16.000Z,15.90
2018-04-16T14:02:43.545Z,16.10
2018-04-16T14:05:11.377Z,15.90
2018-04-16T14:07:39.494Z,16.00
2018-04-16T14:10:11.997Z,15.80
2018-04-16T14:12:45.006Z,15.60
2018-04-16T14:15:12.832Z,15.50
2018-04-16T14:17:40.554Z,15.40
2018-04-16T14:20:08.103Z,15.40
2018-04-16T14:22:56.947Z,15.50
2018-04-16T14:25:24.499Z,15.80
2018-04-16T14:27:54.350Z,16.50
2018-04-16T14:30:23.587Z,16.40
2018-04-16T14:32:51.148Z,16.40
2018-04-16T14:35:21.257Z,16.30
2018-04-16T14:41:10.387Z,16.20
2018-04-16T14:43:41.350Z,16.00
2018-04-16T14:46:11.200Z,16.10
2018-04-16T14:48:40.329Z,16.10
2018-04-16T14:51:08.100Z,16.40
2018-04-16T14:53:36.029Z,16.40
2018-04-16T14:56:04.760Z,16.00
2018-04-16T14:58:32.630Z,16.00
2018-04-16T15:01:00.687Z,15.90
2018-04-16T15:03:28.377Z,15.90
2018-04-16T15:06:01.694Z,15.90
2018-04-16T15:08:30.548Z,15.80
2018-04-16T15:10:58.096Z,15.80
2018-04-16T15:13:25.646Z,15.70
2018-04-16T15:15:54.572Z,15.90
2018-04-16T15:18:25.344Z,15.90
2018-04-16T15:20:53.158Z,15.80
2018-04-16T15:23:21.148Z,15.70
2018-04-16T15:25:49.910Z,15.60
2018-04-16T15:28:26.345Z,15.50
2018-04-16T15:30:54.665Z,15.50
2018-04-16T15:33:22.739Z,15.50
2018-04-16T15:35:50.589Z,15.40
2018-04-16T15:38:18.858Z,15.20
2018-04-16T15:40:55.829Z,15.10
2018-04-16T15:43:24.553Z,15.10
2018-04-16T15:45:52.331Z,15.30
2018-04-16T15:48:20.862Z,15.40
2018-04-16T15:50:48.889Z,15.50
2018-04-16T15:53:27.218Z,15.50
2018-04-16T15:55:58.169Z,15.30
2018-04-16T15:58:26.893Z,15.20
2018-04-16T16:00:56.437Z,15.40
2018-04-16T16:03:24.398Z,15.60
2018-04-16T16:05:52.377Z,15.80
2018-04-16T16:11:02.914Z,15.60
2018-04-16T16:13:30.456Z,15.30
2018-04-16T16:15:58.840Z,15.20
2018-04-16T16:18:30.017Z,15.20
2018-04-16T16:20:57.596Z,15.20
2018-04-16T16:23:25.998Z,15.40
2018-04-16T16:25:54.673Z,15.40
2018-04-16T16:28:22.756Z,15.40
2018-04-16T16:30:53.121Z,15.20
2018-04-16T16:33:28.472Z,15.20
2018-04-16T16:35:58.165Z,15.20
2018-04-16T16:38:26.882Z,14.90
2018-04-16T16:40:56.001Z,14.80
2018-04-16T16:43:25.179Z,14.60
2018-04-16T16:45:56.433Z,14.40
2018-04-16T16:48:23.976Z,14.20
2018-04-16T16:50:51.532Z,14.00
2018-04-16T16:53:19.510Z,13.90
2018-04-16T16:55:47.868Z,13.80
2018-04-16T16:58:15.862Z,13.90
2018-04-16T17:00:43.440Z,13.90
2018-04-16T17:03:12.627Z,13.90
2018-04-16T17:05:45.737Z,13.90
2018-04-16T17:08:13.286Z,13.90
2018-04-16T17:10:41.805Z,13.80
2018-04-16T17:13:10.020Z,13.90
2018-04-16T17:15:40.435Z,13.80
2018-04-16T17:18:08.073Z,13.70
2018-04-16T17:20:36.394Z,13.60
2018-04-16T17:23:03.936Z,13.60
2018-04-16T17:25:34.630Z,13.60
2018-04-16T17:28:08.404Z,13.60
2018-04-16T17:30:36.771Z,13.50
2018-04-16T17:33:04.425Z,13.40
2018-04-16T17:35:38.084Z,13.30
2018-04-16T17:38:05.767Z,13.30
2018-04-16T17:40:34.019Z,13.20
2018-04-16T17:43:01.574Z,13.20
2018-04-16T17:45:30.352Z,13.30
2018-04-16T17:47:58.287Z,13.20
2018-04-16T17:50:26.339Z,13.20
2018-04-16T17:52:55.532Z,13.10
2018-04-16T17:55:24.548Z,13.10
2018-04-16T17:57:53.846Z,13.00
2018-04-16T18:00:27.165Z,12.90
2018-04-16T18:02:55.095Z,12.80
2018-04-16T18:05:23.284Z,12.80
2018-04-16T18:07:50.852Z,12.70
2018-04-16T18:10:18.448Z,12.70
2018-04-16T18:12:46.764Z,12.50
2018-04-16T18:15:14.327Z,12.50
2018-04-16T18:17:41.879Z,12.40
2018-04-16T18:20:09.571Z,12.30
2018-04-16T18:22:37.972Z,12.30
2018-04-16T18:25:10.206Z,12.30
2018-04-16T18:27:42.468Z,12.30
2018-04-16T18:30:16.418Z,12.20
2018-04-16T18:32:52.744Z,12.10
2018-04-16T18:35:25.635Z,12.10
2018-04-16T18:37:56.508Z,12.10
2018-04-16T18:40:32.168Z,12.10
2018-04-16T18:43:21.516Z,12.00
2018-04-16T18:45:49.092Z,12.00
2018-04-16T18:48:20.155Z,11.90
2018-04-16T18:50:47.834Z,11.90
2018-04-16T18:53:15.406Z,11.80
2018-04-16T18:55:42.988Z,11.80
2018-04-16T18:58:13.522Z,11.80
2018-04-16T19:00:41.631Z,11.70
2018-04-16T19:03:09.733Z,11.60
2018-04-16T19:05:37.795Z,11.60
2018-04-16T19:08:05.378Z,11.50
2018-04-16T19:10:32.924Z,11.30
2018-04-16T19:13:01.324Z,11.20
2018-04-16T19:15:29.999Z,11.10
2018-04-16T19:17:57.500Z,10.90
2018-04-16T19:20:30.715Z,10.80
2018-04-16T19:22:58.274Z,10.70
2018-04-16T19:25:26.046Z,10.50
2018-04-16T19:30:57.489Z,10.30
2018-04-16T19:33:31.490Z,10.20
2018-04-16T19:35:59.276Z,10.00
2018-04-16T19:38:30.063Z,9.90
2018-04-16T19:40:57.644Z,9.80
2018-04-16T19:43:25.551Z,9.80
2018-04-16T19:45:53.247Z,9.70
2018-04-16T19:48:20.860Z,9.70
2018-04-16T19:50:48.412Z,9.70
2018-04-16T19:53:16.422Z,9.70
2018-04-16T19:55:51.301Z,9.60
2018-04-16T19:58:22.018Z,9.60
2018-04-16T20:00:54.310Z,9.70
2018-04-16T20:03:29.646Z,9.70
2018-04-16T20:06:03.199Z,9.70
2018-04-16T20:08:34.648Z,9.70
2018-04-16T20:11:04.745Z,9.80
2018-04-16T20:13:33.426Z,9.70
2018-04-16T20:16:01.256Z,9.80
2018-04-16T20:18:29.874Z,9.80
2018-04-16T20:20:58.194Z,9.80
2018-04-16T20:23:29.154Z,9.80
2018-04-16T20:25:57.653Z,9.80
2018-04-16T20:28:26.156Z,9.80
2018-04-16T20:30:55.864Z,9.80
2018-04-16T20:33:25.397Z,9.80
2018-04-16T20:35:53.726Z,9.90
2018-04-16T20:38:21.286Z,9.80
2018-04-16T20:40:49.730Z,9.90
2018-04-16T20:43:17.293Z,9.80
2018-04-16T20:45:45.932Z,9.80
2018-04-16T20:48:13.490Z,9.80
2018-04-16T20:50:43.843Z,9.80
2018-04-16T20:53:17.426Z,9.90
2018-04-16T20:55:48.453Z,9.80
2018-04-16T20:58:20.284Z,9.70
2018-04-16T21:00:49.606Z,9.70
2018-04-16T21:03:17.992Z,9.80
2018-04-16T21:05:45.759Z,9.70
2018-04-16T21:08:14.268Z,9.70
2018-04-16T21:10:49.112Z,9.70
2018-04-16T21:13:23.398Z,9.80
2018-04-16T21:16:12.834Z,9.70
2018-04-16T21:18:40.625Z,9.70
2018-04-16T21:21:09.944Z,9.70
2018-04-16T21:23:45.494Z,9.70
2018-04-16T21:26:15.184Z,9.80
2018-04-16T21:28:44.562Z,9.70
2018-04-16T21:31:12.703Z,9.70
2018-04-16T21:33:42.828Z,9.70
2018-04-16T21:36:10.442Z,9.60
2018-04-16T21:38:39.650Z,9.70
2018-04-16T21:41:12.687Z,9.70
2018-04-16T21:43:46.780Z,9.60
2018-04-16T21:46:15.617Z,9.60
2018-04-16T21:48:43.590Z,9.60
2018-04-16T21:51:12.091Z,9.50
2018-04-16T21:53:40.733Z,9.50
2018-04-16T21:56:08.290Z,9.50
2018-04-16T21:58:41.151Z,9.50
2018-04-16T22:01:17.074Z,9.40
2018-04-16T22:03:50.165Z,9.40
2018-04-16T22:06:22.939Z,9.40
2018-04-16T22:08:53.119Z,9.50
2018-04-16T22:11:20.790Z,9.50
2018-04-16T22:13:51.682Z,9.60
2018-04-16T22:16:32.146Z,9.60
2018-04-16T22:19:01.563Z,9.60
2018-04-16T22:21:35.605Z,9.60
2018-04-16T22:24:04.067Z,9.60
2018-04-16T22:26:31.893Z,9.60
2018-04-16T22:29:05.894Z,9.50
2018-04-16T22:31:34.988Z,9.50
2018-04-16T22:34:03.330Z,9.60
2018-04-16T22:36:33.426Z,9.60
2018-04-16T22:39:02.041Z,9.60
2018-04-16T22:41:33.205Z,9.60
2018-04-16T22:44:01.335Z,9.60
2018-04-16T22:46:31.970Z,9.50
2018-04-16T22:49:00.178Z,9.50
2018-04-16T22:51:27.761Z,9.50
2018-04-16T22:53:55.780Z,9.50
2018-04-16T22:56:25.813Z,9.40
2018-04-16T22:58:55.118Z,9.50
2018-04-16T23:01:32.040Z,9.50
2018-04-16T23:04:00.426Z,9.40
2018-04-16T23:06:27.963Z,9.50
2018-04-16T23:09:01.616Z,9.50
2018-04-16T23:11:29.402Z,9.50
2018-04-16T23:14:04.104Z,9.60
2018-04-16T23:16:32.363Z,9.50
2018-04-16T23:19:00.621Z,9.50
2018-04-16T23:21:28.203Z,9.60
2018-04-16T23:23:55.771Z,9.60
2018-04-16T23:26:23.413Z,9.60
2018-04-16T23:28:51.006Z,9.60
2018-04-16T23:31:19.938Z,9.60
2018-04-16T23:33:51.668Z,9.60
2018-04-16T23:36:19.801Z,9.60
2018-04-16T23:38:47.916Z,9.50
2018-04-16T23:41:16.640Z,9.50
2018-04-16T23:43:45.270Z,9.50
2018-04-16T23:46:17.478Z,9.50
2018-04-16T23:48:45.816Z,9.50
2018-04-16T23:51:13.478Z,9.50
2018-04-16T23:53:41.854Z,9.50
2018-04-16T23:56:09.424Z,9.50
2018-04-16T23:58:36.982Z,9.50
